Time;durP1;ratioP1;P1;durP2;ratioP2;P2;SDS_P1;SDS_P2;PMS_P1;PMS_P2;Temp;Humidity;BMP_temperature;BMP_pressure;BME280_temperature;BME280_humidity;BME280_pressure;Samples;Min_cycle;Max_cycle;Signal;HPM_P1;HPM_P2
2021/03/30 00:00:24;;;;;;;5.22;1.98;;;8.30;71.80;;;;;;5060728;28;19920;-57
2021/03/30 00:02:49;;;;;;;;;;;8.30;70.70;;;;;;5060755;28;20052;-59
2021/03/30 00:05:15;;;;;;;4.50;2.38;;;8.30;71.30;;;;;;5061197;28;20395;-58
2021/03/30 00:07:41;;;;;;;;;;;8.30;71.50;;;;;;5060772;28;20037;-60
2021/03/30 00:10:11;;;;;;;6.68;2.00;;;8.30;70.80;;;;;;5061168;28;19923;-61
2021/03/30 00:12:36;;;;;;;10.93;3.15;;;8.30;71.10;;;;;;5060591;28;20108;-60
2021/03/30 00:15:02;;;;;;;;;;;8.30;71.30;;;;;;5045057;28;20073;-60
2021/03/30 00:17:28;;;;;;;2.42;1.60;;;8.30;70.10;;;;;;5047323;28;20587;-59
2021/03/30 00:19:54;;;;;;;;;;;8.30;71.30;;;;;;5047904;28;20044;-59
2021/03/30 00:22:19;;;;;;;5.40;1.60;;;8.30;70.80;;;;;;5047049;28;20369;-59
2021/03/30 00:24:45;;;;;;;;;;;8.30;70.00;;;;;;5047134;28;20037;-59
2021/03/30 00:27:10;;;;;;;3.13;1.73;;;8.30;70.70;;;;;;5062978;28;20381;-59
2021/03/30 00:29:42;;;;;;;;;;;8.30;70.40;;;;;;5047549;28;20072;-61
2021/03/30 00:32:10;;;;;;;3.45;1.70;;;8.30;70.50;;;;;;5046202;28;19974;-59
2021/03/30 00:34:36;;;;;;;5.35;2.25;;;8.30;71.10;;;;;;5047314;28;20083;-60
2021/03/30 00:37:02;;;;;;;;;;;8.20;72.70;;;;;;5040562;28;20041;-54
2021/03/30 00:39:27;;;;;;;3.28;1.90;;;8.20;72.00;;;;;;5045995;28;20039;-58
2021/03/30 00:41:53;;;;;;;;;;;8.20;72.50;;;;;;5047525;28;20044;-55
2021/03/30 00:44:18;;;;;;;2.53;1.73;;;8.10;71.80;;;;;;5046492;28;20384;-56
2021/03/30 00:46:44;;;;;;;;;;;8.10;73.90;;;;;;5046498;28;20069;-57
2021/03/30 00:49:10;;;;;;;7.13;2.33;;;8.00;76.10;;;;;;5046474;28;19917;-56
2021/03/30 00:51:35;;;;;;;;;;;7.90;75.50;;;;;;5046393;28;20094;-57
2021/03/30 00:54:01;;;;;;;5.55;2.08;;;7.90;74.70;;;;;;5046724;28;19924;-53
2021/03/30 00:56:27;;;;;;;;;;;7.80;75.90;;;;;;5046835;28;20492;-55
2021/03/30 00:58:55;;;;;;;5.13;2.17;;;7.80;74.10;;;;;;5046652;28;19971;-55
2021/03/30 01:01:21;;;;;;;5.28;2.25;;;7.80;75.90;;;;;;5044821;28;20044;-58
2021/03/30 01:03:46;;;;;;;;;;;7.70;75.60;;;;;;5046357;28;20537;-53
2021/03/30 01:06:12;;;;;;;7.50;2.17;;;7.60;76.80;;;;;;5046622;28;20019;-54
2021/03/30 01:08:56;;;;;;;;;;;7.60;76.10;;;;;;5046229;28;20041;-55
2021/03/30 01:11:42;;;;;;;4.20;2.10;;;7.60;77.00;;;;;;5045799;28;20398;-51
2021/03/30 01:14:19;;;;;;;8.17;2.30;;;7.60;76.60;;;;;;5044897;28;20048;-55
2021/03/30 01:16:55;;;;;;;7.35;3.00;;;7.60;75.70;;;;;;5040263;28;20568;-54
2021/03/30 01:19:53;;;;;;;5.40;2.60;;;7.60;75.90;;;;;;5046511;28;20041;-54
2021/03/30 01:22:42;;;;;;;7.13;2.60;;;7.60;76.20;;;;;;5042297;28;20072;-54
2021/03/30 01:25:08;;;;;;;4.97;2.60;;;7.60;76.60;;;;;;5046305;28;20036;-53
2021/03/30 01:27:40;;;;;;;;;;;7.60;76.00;;;;;;5045421;28;20036;-56
2021/03/30 01:30:07;;;;;;;7.80;2.70;;;7.60;76.70;;;;;;5046004;28;19917;-56
2021/03/30 01:32:51;;;;;;;13.55;3.42;;;7.60;77.90;;;;;;5045697;28;20045;-57
2021/03/30 01:35:25;;;;;;;8.82;3.45;;;7.60;76.90;;;;;;5046517;28;20037;-56
2021/03/30 01:37:53;;;;;;;5.68;2.95;;;7.60;76.00;;;;;;5045847;28;20579;-56
2021/03/30 01:40:31;;;;;;;8.60;3.55;;;7.70;76.80;;;;;;5046120;28;20029;-50
2021/03/30 01:42:58;;;;;;;6.82;4.20;;;7.70;77.40;;;;;;5044907;28;20091;-58
2021/03/30 01:45:25;;;;;;;8.25;3.67;;;7.70;78.60;;;;;;5045241;28;20043;-55
2021/03/30 01:47:52;;;;;;;8.48;4.32;;;7.70;77.60;;;;;;5045674;28;20033;-54
2021/03/30 01:50:18;;;;;;;11.25;4.05;;;7.60;77.60;;;;;;5045275;28;20097;-56
2021/03/30 01:52:45;;;;;;;14.25;4.15;;;7.60;78.20;;;;;;5045565;28;20044;-55
2021/03/30 01:55:16;;;;;;;8.20;4.82;;;7.60;77.90;;;;;;5044768;28;20037;-55
2021/03/30 01:57:45;;;;;;;10.38;4.88;;;7.60;77.80;;;;;;5045276;28;20723;-55
2021/03/30 02:00:12;;;;;;;11.75;4.50;;;7.60;76.70;;;;;;5045426;28;20481;-54
2021/03/30 02:02:40;;;;;;;12.13;5.00;;;7.60;77.10;;;;;;5044863;28;20281;-53
2021/03/30 02:05:07;;;;;;;6.85;3.83;;;7.60;77.70;;;;;;5045304;28;20098;-55
2021/03/30 02:07:33;;;;;;;11.32;4.88;;;7.60;77.50;;;;;;5045219;28;20057;-55
2021/03/30 02:10:07;;;;;;;12.45;4.82;;;7.60;77.60;;;;;;5044636;28;20091;-55
2021/03/30 02:12:35;;;;;;;9.15;4.50;;;7.60;78.20;;;;;;5044915;28;20044;-55
2021/03/30 02:15:02;;;;;;;7.60;4.00;;;7.50;77.20;;;;;;5044596;28;20099;-53
2021/03/30 02:17:44;;;;;;;10.00;4.70;;;7.50;77.00;;;;;;5051692;28;20132;-54
2021/03/30 02:20:14;;;;;;;9.75;4.47;;;7.50;77.40;;;;;;5044822;28;20060;-53
2021/03/30 02:22:52;;;;;;;20.20;5.45;;;7.50;77.60;;;;;;5044796;28;20051;-49
2021/03/30 02:25:19;;;;;;;19.48;5.18;;;7.50;77.70;;;;;;5044885;28;20033;-61
2021/03/30 02:27:47;;;;;;;9.35;4.68;;;7.40;77.40;;;;;;5044236;28;20041;-55
2021/03/30 02:30:14;;;;;;;11.98;4.40;;;7.40;77.10;;;;;;5044279;28;20041;-51
2021/03/30 02:32:42;;;;;;;11.35;5.25;;;7.40;77.40;;;;;;5044268;28;20094;-57
2021/03/30 02:35:11;;;;;;;9.68;4.55;;;7.40;77.50;;;;;;5044732;28;20640;-53
2021/03/30 02:37:38;;;;;;;10.05;4.80;;;7.30;79.30;;;;;;5027350;28;20084;-52
2021/03/30 02:40:06;;;;;;;9.85;4.97;;;7.30;80.40;;;;;;5041050;28;20401;-48
2021/03/30 02:42:34;;;;;;;9.00;4.90;;;7.20;80.40;;;;;;5044586;28;20389;-54
2021/03/30 02:45:01;;;;;;;8.80;4.53;;;7.10;82.50;;;;;;5044099;28;20087;-55
2021/03/30 02:47:27;;;;;;;19.25;5.38;;;7.10;82.90;;;;;;5044272;28;20076;-56
2021/03/30 02:49:54;;;;;;;8.13;5.07;;;6.90;83.80;;;;;;5044715;28;20116;-50
2021/03/30 02:52:22;;;;;;;12.07;4.82;;;6.80;84.70;;;;;;5043502;28;20048;-54
2021/03/30 02:54:48;;;;;;;15.93;5.00;;;6.70;84.60;;;;;;5044325;28;20628;-57
2021/03/30 02:57:15;;;;;;;;;;;6.70;85.30;;;;;;5044586;28;20065;-51
2021/03/30 02:59:41;;;;;;;12.65;6.25;;;6.70;85.00;;;;;;5044125;28;20629;-57
2021/03/30 03:02:07;;;;;;;17.45;7.90;;;6.80;84.70;;;;;;5042254;28;20047;-55
2021/03/30 03:04:35;;;;;;;14.82;6.53;;;6.80;83.20;;;;;;5044750;28;20048;-55
2021/03/30 03:07:02;;;;;;;15.85;6.90;;;6.90;83.20;;;;;;5038735;28;20041;-56
2021/03/30 03:09:29;;;;;;;14.52;6.53;;;7.00;82.70;;;;;;5043989;28;20117;-55
2021/03/30 03:11:55;;;;;;;14.02;6.13;;;7.00;82.20;;;;;;5034950;28;20044;-58
2021/03/30 03:14:22;;;;;;;20.88;6.78;;;7.00;82.10;;;;;;5063963;28;20052;-53
2021/03/30 03:16:49;;;;;;;15.95;5.78;;;7.00;81.90;;;;;;5039513;28;20047;-56
2021/03/30 03:19:16;;;;;;;13.93;6.53;;;7.00;82.10;;;;;;5044080;28;20040;-55
2021/03/30 03:21:42;;;;;;;15.13;6.57;;;7.00;83.20;;;;;;5043943;28;20048;-56
2021/03/30 03:24:12;;;;;;;17.27;6.35;;;7.00;84.50;;;;;;5044284;28;20550;-56
2021/03/30 03:26:39;;;;;;;17.98;7.45;;;6.90;85.10;;;;;;5043632;28;20049;-57
2021/03/30 03:29:19;;;;;;;16.67;6.45;;;6.90;84.60;;;;;;5043574;28;20404;-58
2021/03/30 03:31:46;;;;;;;15.77;6.75;;;6.90;84.80;;;;;;5043891;28;20048;-58
2021/03/30 03:34:11;;;;;;;17.08;6.35;;;6.80;85.90;;;;;;5043611;28;20041;-58
2021/03/30 03:36:42;;;;;;;;;;;6.70;86.90;;;;;;5044678;28;20653;-52
2021/03/30 03:39:11;;;;;;;13.02;6.22;;;6.60;87.70;;;;;;5044255;28;19917;-57
2021/03/30 03:41:38;;;;;;;16.55;6.50;;;6.60;88.50;;;;;;5043091;28;20056;-53
2021/03/30 03:44:04;;;;;;;13.63;6.10;;;6.50;89.40;;;;;;5043853;28;20132;-58
2021/03/30 03:46:30;;;;;;;16.48;5.90;;;6.50;90.10;;;;;;5042863;28;20040;-55
2021/03/30 03:48:55;;;;;;;;;;;6.40;90.60;;;;;;5044345;28;20124;-57
2021/03/30 03:51:23;;;;;;;14.13;6.53;;;6.40;90.60;;;;;;5047011;28;19928;-55
2021/03/30 03:53:51;;;;;;;13.85;7.13;;;6.40;90.40;;;;;;5047656;28;20048;-58
2021/03/30 03:56:22;;;;;;;18.02;8.07;;;6.50;90.30;;;;;;5047725;28;20048;-56
2021/03/30 03:58:52;;;;;;;16.50;8.00;;;6.50;90.00;;;;;;5047068;28;20378;-54
2021/03/30 04:01:22;;;;;;;13.77;6.43;;;6.60;90.20;;;;;;5047134;28;20067;-52
2021/03/30 04:03:59;;;;;;;13.27;6.47;;;6.40;89.90;;;;;;5047415;28;20159;-56
2021/03/30 04:06:31;;;;;;;13.40;6.55;;;6.30;90.10;;;;;;5047168;28;20056;-55
2021/03/30 04:08:59;;;;;;;16.67;7.25;;;6.10;90.20;;;;;;5047766;28;20053;-50
2021/03/30 04:11:27;;;;;;;15.40;7.50;;;6.00;91.00;;;;;;5046944;28;20465;-57
2021/03/30 04:13:53;;;;;;;12.80;6.95;;;5.90;91.50;;;;;;5047533;28;20036;-54
2021/03/30 04:16:20;;;;;;;;;;;5.80;91.90;;;;;;5046606;28;20116;-53
2021/03/30 04:18:45;;;;;;;13.90;6.67;;;5.70;90.80;;;;;;5047056;28;19959;-58
2021/03/30 04:21:17;;;;;;;;;;;5.70;90.90;;;;;;5047350;28;20083;-59
2021/03/30 04:23:46;;;;;;;17.67;5.60;;;5.60;91.10;;;;;;5047311;28;19921;-56
2021/03/30 04:26:12;;;;;;;12.68;5.70;;;5.40;91.20;;;;;;5048995;28;20564;-61
2021/03/30 04:28:38;;;;;;;15.70;6.00;;;5.40;91.20;;;;;;5047671;28;20037;-51
2021/03/30 04:31:04;;;;;;;;;;;5.40;91.50;;;;;;5048891;28;20037;-54
2021/03/30 04:33:29;;;;;;;17.55;6.38;;;5.40;91.40;;;;;;5047041;28;19917;-58
2021/03/30 04:35:55;;;;;;;;;;;5.30;91.50;;;;;;5039150;23;20487;-58
2021/03/30 04:38:21;;;;;;;12.63;6.32;;;5.20;92.00;;;;;;5030729;28;20342;-63
2021/03/30 04:40:52;;;;;;;11.85;5.93;;;5.20;92.10;;;;;;5047852;28;20055;-58
2021/03/30 04:43:17;;;;;;;14.55;5.82;;;5.10;92.20;;;;;;5046139;22;20451;-53
2021/03/30 04:45:43;;;;;;;;;;;5.10;92.70;;;;;;5047766;28;20106;-58
2021/03/30 04:48:09;;;;;;;17.92;7.32;;;5.10;93.10;;;;;;5047826;28;19916;-65
2021/03/30 04:50:35;;;;;;;14.93;5.80;;;5.10;93.20;;;;;;5049081;28;20067;-61
2021/03/30 04:53:00;;;;;;;;;;;5.10;94.00;;;;;;5051508;28;20048;-60
2021/03/30 04:55:26;;;;;;;22.63;12.18;;;5.10;94.30;;;;;;5050876;28;19921;-57
2021/03/30 04:57:51;;;;;;;;;;;5.10;95.10;;;;;;5049681;28;20028;-59
2021/03/30 05:00:19;;;;;;;75.57;42.28;;;5.10;95.30;;;;;;5059068;22;19928;-57
2021/03/30 05:02:53;;;;;;;27.90;14.23;;;5.20;96.70;;;;;;5047871;28;20056;-59
2021/03/30 05:05:19;;;;;;;22.27;10.95;;;5.20;95.10;;;;;;5022214;28;20033;-59
2021/03/30 05:07:47;;;;;;;;;;;5.20;95.50;;;;;;5041796;28;20028;-59
2021/03/30 05:10:14;;;;;;;20.15;8.50;;;5.20;95.40;;;;;;5045747;28;19912;-59
2021/03/30 05:12:40;;;;;;;28.73;11.50;;;5.20;95.50;;;;;;5045844;28;20049;-58
2021/03/30 05:15:07;;;;;;;17.30;9.55;;;5.20;95.50;;;;;;5054928;28;20049;-58
2021/03/30 05:17:34;;;;;;;19.27;7.80;;;5.30;95.20;;;;;;5044344;28;20533;-59
2021/03/30 05:19:59;;;;;;;22.48;11.90;;;5.10;95.00;;;;;;5045056;28;20290;-59
2021/03/30 05:22:25;;;;;;;;;;;5.20;94.90;;;;;;5045219;28;20583;-58
2021/03/30 05:24:50;;;;;;;14.32;8.07;;;5.10;94.70;;;;;;5046707;28;19939;-60
2021/03/30 05:27:17;;;;;;;19.90;9.80;;;5.10;95.30;;;;;;5065046;28;20449;-59
2021/03/30 05:29:43;;;;;;;56.33;31.38;;;5.20;95.90;;;;;;5067118;28;20044;-59
2021/03/30 05:32:30;;;;;;;;;;;5.30;96.20;;;;;;5063390;28;20045;-60
2021/03/30 05:34:55;;;;;;;21.60;10.52;;;5.70;95.90;;;;;;5043572;28;20027;-60
2021/03/30 05:37:21;;;;;;;;;;;6.60;94.40;;;;;;5046180;28;20127;-63
2021/03/30 05:39:47;;;;;;;39.25;19.98;;;6.90;92.90;;;;;;5045665;28;19925;-62
2021/03/30 05:42:15;;;;;;;18.02;10.77;;;6.80;93.00;;;;;;5043644;28;20045;-62
2021/03/30 05:44:42;;;;;;;14.80;8.38;;;6.80;92.30;;;;;;5044860;28;20084;-62
2021/03/30 05:47:19;;;;;;;22.75;13.85;;;7.20;91.80;;;;;;5044671;28;20128;-63
2021/03/30 05:49:45;;;;;;;21.40;10.73;;;7.20;91.80;;;;;;5046449;28;20052;-61
2021/03/30 05:52:25;;;;;;;19.48;7.97;;;7.00;92.20;;;;;;5044887;28;20037;-66
2021/03/30 05:55:01;;;;;;;26.33;7.75;;;7.10;91.80;;;;;;5041878;28;20048;-59
2021/03/30 05:57:30;;;;;;;16.10;8.00;;;6.80;92.40;;;;;;5018922;28;20497;-58
2021/03/30 05:59:58;;;;;;;23.50;7.45;;;6.80;92.70;;;;;;5044427;28;20450;-58
2021/03/30 06:02:39;;;;;;;22.50;12.80;;;6.90;93.00;;;;;;5020085;28;20069;-59
2021/03/30 06:05:08;;;;;;;21.02;9.02;;;7.30;92.80;;;;;;5025326;28;20080;-59
2021/03/30 06:07:38;;;;;;;21.85;7.93;;;7.60;92.20;;;;;;5023682;28;20560;-59
2021/03/30 06:10:14;;;;;;;16.15;7.68;;;7.80;91.20;;;;;;5027142;28;20056;-58
2021/03/30 06:12:40;;;;;;;17.63;7.32;;;7.80;91.80;;;;;;5025823;28;20051;-59
2021/03/30 06:15:08;;;;;;;;;;;8.10;91.90;;;;;;5041417;22;20080;-85
2021/03/30 06:17:50;;;;;;;26.98;14.50;;;8.50;91.40;;;;;;5059785;28;19995;-83
2021/03/30 06:20:33;;;;;;;16.10;8.10;;;8.90;91.10;;;;;;5067591;28;20041;-84
2021/03/30 06:23:06;;;;;;;16.80;7.30;;;9.10;90.30;;;;;;5058872;28;20059;-85
2021/03/30 06:25:43;;;;;;;19.40;7.45;;;9.70;89.70;;;;;;5029016;28;20042;-83
2021/03/30 06:28:21;;;;;;;19.33;8.50;;;10.20;88.30;;;;;;5048829;28;20148;-84
2021/03/30 06:31:11;;;;;;;40.90;24.58;;;10.70;86.20;;;;;;5041017;28;20041;-84
2021/03/30 06:33:57;;;;;;;27.75;11.38;;;11.00;84.90;;;;;;5042314;28;20041;-83
2021/03/30 06:36:31;;;;;;;13.20;8.05;;;11.10;84.40;;;;;;5042750;28;20079;-83
2021/03/30 06:39:09;;;;;;;27.63;8.85;;;10.80;85.60;;;;;;5046972;28;20048;-83
2021/03/30 06:44:26;;;;;;;21.05;10.45;;;10.10;88.60;;;;;;5044064;28;20147;-84
2021/03/30 06:46:57;;;;;;;22.63;10.20;;;10.20;88.50;;;;;;5046786;28;20044;-83
2021/03/30 06:49:26;;;;;;;26.42;8.10;;;10.50;87.30;;;;;;5040844;28;20094;-84
2021/03/30 06:51:53;;;;;;;20.48;8.35;;;11.00;86.10;;;;;;5047772;28;20068;-84
2021/03/30 06:54:19;;;;;;;16.42;7.47;;;11.60;85.90;;;;;;5047493;28;20500;-83
2021/03/30 06:57:03;;;;;;;;;;;11.70;86.40;;;;;;5046413;28;20120;-84
2021/03/30 06:59:44;;;;;;;17.40;8.10;;;11.80;85.50;;;;;;5046522;28;19916;-84
2021/03/30 07:02:10;;;;;;;14.32;7.47;;;11.70;85.70;;;;;;5029972;28;20037;-83
2021/03/30 07:04:53;;;;;;;18.48;8.07;;;11.90;84.70;;;;;;5020342;28;20034;-83
2021/03/30 07:07:22;;;;;;;19.73;7.65;;;11.80;82.40;;;;;;5012978;28;20076;-84
2021/03/30 07:09:51;;;;;;;18.10;7.47;;;12.40;82.40;;;;;;5014996;28;20180;-84
2021/03/30 07:12:23;;;;;;;19.27;8.30;;;12.80;81.60;;;;;;5025273;28;20559;-84
2021/03/30 07:14:50;;;;;;;20.90;8.07;;;13.30;80.00;;;;;;5022205;28;20072;-84
2021/03/30 07:17:26;;;;;;;21.30;8.18;;;13.60;82.40;;;;;;5017443;28;20071;-84
2021/03/30 07:19:55;;;;;;;18.08;7.30;;;14.10;80.10;;;;;;5026616;28;20049;-84
2021/03/30 07:22:23;;;;;;;22.67;8.05;;;14.40;77.30;;;;;;5027532;28;20037;-84
2021/03/30 07:25:02;;;;;;;20.60;7.75;;;14.60;77.80;;;;;;5027732;28;20045;-84
2021/03/30 07:28:21;;;;;;;19.25;8.48;;;15.20;74.80;;;;;;5031279;28;20040;-84
2021/03/30 07:30:55;;;;;;;19.30;7.82;;;15.60;73.60;;;;;;4965884;28;20057;-84
2021/03/30 07:33:34;;;;;;;15.82;8.68;;;15.60;71.60;;;;;;5033450;28;20375;-84
2021/03/30 07:36:03;;;;;;;16.20;7.72;;;15.40;71.40;;;;;;5034555;28;20049;-84
2021/03/30 07:38:39;;;;;;;18.05;8.75;;;15.30;73.50;;;;;;5020794;28;20038;-83
2021/03/30 07:41:05;;;;;;;23.25;11.25;;;15.50;69.70;;;;;;5014310;28;20045;-82
2021/03/30 07:43:32;;;;;;;20.45;10.98;;;15.30;66.30;;;;;;5017416;28;20053;-83
2021/03/30 07:46:01;;;;;;;19.05;9.68;;;15.20;65.90;;;;;;5020021;28;20038;-83
2021/03/30 07:48:31;;;;;;;18.80;9.65;;;15.30;72.30;;;;;;5011953;28;20046;-83
2021/03/30 07:51:05;;;;;;;28.45;18.75;;;15.70;66.30;;;;;;5030922;28;20045;-83
2021/03/30 07:53:48;;;;;;;23.67;12.43;;;16.20;67.10;;;;;;5030702;28;20082;-83
2021/03/30 07:56:27;;;;;;;27.55;11.18;;;16.40;62.30;;;;;;5031036;28;20089;-83
2021/03/30 07:58:55;;;;;;;31.13;13.05;;;16.40;55.50;;;;;;5034145;28;20112;-83
2021/03/30 08:01:24;;;;;;;26.08;12.95;;;16.20;54.10;;;;;;5027302;28;20044;-84
2021/03/30 08:03:53;;;;;;;24.10;12.25;;;16.80;53.70;;;;;;5022130;28;20127;-83
2021/03/30 08:06:22;;;;;;;23.92;11.80;;;17.80;49.90;;;;;;5023263;28;20030;-84
2021/03/30 08:08:55;;;;;;;23.30;11.27;;;18.90;49.30;;;;;;5014468;28;20065;-82
2021/03/30 08:11:40;;;;;;;21.98;11.73;;;20.00;46.10;;;;;;5010587;28;20046;-82
2021/03/30 08:14:07;;;;;;;20.77;12.20;;;20.60;41.30;;;;;;5022459;28;20033;-82
2021/03/30 08:16:46;;;;;;;20.08;10.73;;;20.70;39.60;;;;;;5024665;28;20045;-83
2021/03/30 08:19:14;;;;;;;16.48;9.60;;;20.90;37.00;;;;;;5030641;28;20497;-82
2021/03/30 08:22:05;;;;;;;19.70;9.98;;;21.60;35.60;;;;;;5030531;28;20084;-81
2021/03/30 08:24:46;;;;;;;15.45;9.50;;;22.30;34.70;;;;;;5016694;28;20059;-84
2021/03/30 08:27:31;;;;;;;16.17;9.07;;;22.90;34.40;;;;;;5011789;28;20033;-83
2021/03/30 08:30:16;;;;;;;15.27;8.85;;;22.80;31.00;;;;;;5009410;28;20133;-82
2021/03/30 08:32:47;;;;;;;16.60;8.38;;;23.40;31.80;;;;;;5009341;28;20048;-83
2021/03/30 08:35:28;;;;;;;13.00;7.60;;;23.70;30.30;;;;;;5022044;28;20046;-83
2021/03/30 08:37:58;;;;;;;15.75;7.18;;;23.00;28.70;;;;;;5022049;28;20562;-82
2021/03/30 08:40:34;;;;;;;16.88;7.75;;;21.30;29.00;;;;;;5035157;28;20042;-82
2021/03/30 08:43:21;;;;;;;17.92;8.80;;;19.50;32.80;;;;;;5018371;28;20128;-84
2021/03/30 08:45:56;;;;;;;;;;;18.50;36.50;;;;;;5025942;28;20045;-82
2021/03/30 08:48:35;;;;;;;11.85;5.63;;;17.90;34.30;;;;;;5010535;28;19936;-82
2021/03/30 08:51:15;;;;;;;12.90;6.07;;;17.80;38.60;;;;;;5011466;28;20070;-83
2021/03/30 08:53:41;;;;;;;13.05;5.47;;;17.70;39.10;;;;;;5008887;28;20070;-82
2021/03/30 08:56:10;;;;;;;;;;;17.70;40.70;;;;;;5026106;28;20193;-83
2021/03/30 08:58:47;;;;;;;9.50;4.93;;;17.70;37.40;;;;;;5009496;28;19956;-83
2021/03/30 09:01:13;;;;;;;9.65;4.68;;;17.50;32.40;;;;;;5009406;28;20060;-85
2021/03/30 09:03:39;;;;;;;;;;;17.60;34.50;;;;;;5029165;28;20492;-83
2021/03/30 09:06:05;;;;;;;10.85;5.97;;;17.70;36.90;;;;;;5029358;28;19924;-83
2021/03/30 09:08:39;;;;;;;18.83;9.98;;;17.70;39.00;;;;;;5028811;28;20045;-83
2021/03/30 09:11:24;;;;;;;14.73;6.63;;;17.80;36.60;;;;;;5028914;28;20445;-84
2021/03/30 09:14:21;;;;;;;13.00;6.18;;;17.80;37.60;;;;;;5021608;28;20414;-83
2021/03/30 09:16:51;;;;;;;11.52;5.50;;;17.80;35.50;;;;;;5016813;28;20426;-83
2021/03/30 09:19:40;;;;;;;11.40;6.65;;;17.70;31.10;;;;;;5028789;28;20041;-83
2021/03/30 09:22:13;;;;;;;13.98;8.13;;;17.80;35.90;;;;;;5028829;28;20056;-83
2021/03/30 09:27:30;;;;;;;17.30;9.05;;;18.00;33.80;;;;;;5029829;28;20044;-82
2021/03/30 09:29:58;;;;;;;10.55;5.68;;;18.10;34.20;;;;;;5022288;28;20649;-83
2021/03/30 09:32:26;;;;;;;15.82;9.23;;;18.10;30.50;;;;;;5027578;28;20107;-83
2021/03/30 09:34:53;;;;;;;26.98;17.50;;;18.40;35.40;;;;;;5028655;28;20457;-83
2021/03/30 09:37:19;;;;;;;20.27;8.85;;;18.40;37.00;;;;;;5028059;28;20140;-83
2021/03/30 09:39:45;;;;;;;16.70;5.25;;;18.50;35.20;;;;;;5028425;28;20034;-82
2021/03/30 09:42:12;;;;;;;10.55;4.72;;;18.60;34.00;;;;;;5028727;28;20607;-83
2021/03/30 09:44:44;;;;;;;9.10;5.10;;;18.60;32.50;;;;;;5020142;28;20086;-82
2021/03/30 09:47:14;;;;;;;10.45;5.50;;;18.60;35.20;;;;;;5026671;28;20045;-84
2021/03/30 09:49:42;;;;;;;10.18;4.55;;;18.70;35.40;;;;;;5028686;28;20571;-83
2021/03/30 09:52:11;;;;;;;28.58;12.68;;;18.80;31.70;;;;;;5027587;28;20120;-83
2021/03/30 09:54:42;;;;;;;10.70;5.75;;;18.80;32.70;;;;;;5028218;28;20038;-82
2021/03/30 09:57:16;;;;;;;37.25;6.53;;;18.90;36.30;;;;;;5027899;28;20041;-83
2021/03/30 09:59:47;;;;;;;9.55;4.55;;;19.00;36.10;;;;;;5027565;28;20638;-83
2021/03/30 10:02:30;;;;;;;6.68;3.40;;;19.00;31.60;;;;;;5031438;28;20033;-83
2021/03/30 10:05:05;;;;;;;13.02;4.25;;;18.90;30.60;;;;;;5044121;28;20076;-86
2021/03/30 10:07:37;;;;;;;8.48;3.78;;;19.00;36.60;;;;;;5046944;28;20033;-85
2021/03/30 10:10:06;;;;;;;5.57;3.47;;;19.20;34.20;;;;;;5047310;28;20045;-82
2021/03/30 10:12:36;;;;;;;6.28;3.40;;;19.40;32.90;;;;;;5042382;28;20045;-83
2021/03/30 10:15:05;;;;;;;7.53;3.60;;;19.50;34.60;;;;;;5037268;28;20056;-83
2021/03/30 10:17:31;;;;;;;9.18;2.25;;;19.30;32.10;;;;;;5048530;28;20075;-83
2021/03/30 10:19:58;;;;;;;6.55;2.78;;;19.30;36.60;;;;;;5037282;28;20042;-83
2021/03/30 10:22:33;;;;;;;9.35;3.58;;;19.50;36.20;;;;;;5047147;28;20086;-83
2021/03/30 10:25:16;;;;;;;7.60;3.17;;;19.60;36.80;;;;;;5049047;28;20632;-83
2021/03/30 10:28:01;;;;;;;32.85;22.08;;;19.70;34.20;;;;;;5035071;28;20037;-83
2021/03/30 10:30:39;;;;;;;8.75;3.70;;;19.80;32.30;;;;;;5043333;28;20069;-81
2021/03/30 10:33:08;;;;;;;5.20;2.15;;;19.80;35.80;;;;;;5052837;28;20105;-83
2021/03/30 10:35:34;;;;;;;11.32;4.47;;;19.90;34.80;;;;;;5043603;28;20041;-82
2021/03/30 10:38:01;;;;;;;5.65;3.00;;;19.80;30.40;;;;;;5050308;28;20049;-83
2021/03/30 10:40:34;;;;;;;;;;;19.90;32.90;;;;;;5050329;28;20045;-83
2021/03/30 10:43:21;;;;;;;6.10;2.70;;;19.90;29.00;;;;;;5051204;28;19920;-82
2021/03/30 10:45:48;;;;;;;5.70;3.60;;;19.80;28.80;;;;;;5039896;28;20044;-83
2021/03/30 10:48:14;;;;;;;4.43;2.53;;;19.90;32.70;;;;;;5037792;28;20033;-83
2021/03/30 10:50:41;;;;;;;10.20;3.33;;;20.00;30.90;;;;;;5029146;28;20045;-84
2021/03/30 10:53:07;;;;;;;24.00;9.23;;;19.90;33.50;;;;;;5029574;28;20044;-83
2021/03/30 10:55:34;;;;;;;19.25;9.85;;;19.70;38.70;;;;;;5050381;28;20100;-84
2021/03/30 10:58:05;;;;;;;21.17;9.98;;;19.50;39.90;;;;;;5050770;28;20449;-83
2021/03/30 11:00:32;;;;;;;21.63;9.38;;;19.40;41.80;;;;;;5048267;28;20037;-83
2021/03/30 11:02:58;;;;;;;18.10;8.55;;;19.40;41.70;;;;;;5049063;28;20497;-83
2021/03/30 11:05:25;;;;;;;31.15;10.93;;;19.60;41.30;;;;;;5049244;28;20037;-83
2021/03/30 11:07:52;;;;;;;21.60;9.95;;;19.50;42.30;;;;;;5037282;28;20044;-83
2021/03/30 11:10:20;;;;;;;21.05;9.65;;;19.60;43.70;;;;;;5030467;28;20119;-82
2021/03/30 11:12:46;;;;;;;21.92;9.20;;;19.60;41.20;;;;;;5030566;28;20037;-82
2021/03/30 11:15:12;;;;;;;;;;;19.50;42.10;;;;;;5036721;28;20044;-82
2021/03/30 11:17:38;;;;;;;21.17;9.85;;;19.50;41.00;;;;;;5030713;28;20458;-83
2021/03/30 11:20:07;;;;;;;23.15;10.90;;;19.50;42.50;;;;;;5034901;28;20036;-82
2021/03/30 11:22:33;;;;;;;21.27;10.02;;;19.50;41.40;;;;;;5032362;28;20040;-83
2021/03/30 11:25:03;;;;;;;;;;;19.60;41.10;;;;;;5036152;28;20037;-82
2021/03/30 11:27:32;;;;;;;17.90;8.98;;;19.70;43.30;;;;;;5046658;28;19916;-83
2021/03/30 11:32:49;;;;;;;17.35;8.63;;;20.00;40.40;;;;;;5047511;28;20060;-83
2021/03/30 11:35:20;;;;;;;21.83;9.75;;;20.10;45.00;;;;;;5046269;28;20041;-82
2021/03/30 11:40:42;;;;;;;16.80;8.45;;;20.00;40.90;;;;;;5037801;28;20048;-82
2021/03/30 11:43:08;;;;;;;17.35;9.35;;;19.90;40.80;;;;;;5044067;28;20704;-82
2021/03/30 11:45:35;;;;;;;16.48;8.88;;;20.00;42.40;;;;;;5040056;28;20044;-83
2021/03/30 11:48:01;;;;;;;19.23;8.57;;;20.20;42.70;;;;;;5048208;28;20136;-82
2021/03/30 11:50:30;;;;;;;;;;;20.40;41.20;;;;;;5046993;28;20132;-82
2021/03/30 11:52:57;;;;;;;14.48;7.53;;;20.40;37.70;;;;;;5047958;28;19974;-81
2021/03/30 11:55:23;;;;;;;14.35;7.28;;;20.30;38.50;;;;;;5045735;28;20080;-82
2021/03/30 11:57:49;;;;;;;17.55;7.50;;;20.20;36.60;;;;;;5046598;28;20107;-82
2021/03/30 12:00:18;;;;;;;15.55;7.65;;;20.20;38.00;;;;;;5045193;28;20041;-82
2021/03/30 12:02:45;;;;;;;18.02;7.60;;;20.20;39.80;;;;;;5046548;28;20037;-82
2021/03/30 12:05:11;;;;;;;18.65;7.75;;;20.30;40.10;;;;;;5044827;28;20488;-82
2021/03/30 12:07:37;;;;;;;14.73;7.03;;;20.40;39.80;;;;;;5041241;28;20167;-82
2021/03/30 12:10:04;;;;;;;;;;;20.40;39.70;;;;;;5045425;28;20083;-82
2021/03/30 12:12:31;;;;;;;20.88;8.50;;;20.40;37.40;;;;;;5030321;28;19944;-82
2021/03/30 12:14:57;;;;;;;19.67;8.70;;;20.20;37.90;;;;;;5033015;28;20068;-82
2021/03/30 12:17:23;;;;;;;;;;;20.10;37.80;;;;;;5029702;28;20095;-82
2021/03/30 12:19:51;;;;;;;12.63;6.90;;;20.20;41.10;;;;;;5040603;28;19931;-82
2021/03/30 12:22:17;;;;;;;17.13;8.55;;;20.00;38.50;;;;;;5051462;28;20108;-82
2021/03/30 12:24:43;;;;;;;17.13;8.40;;;20.20;40.60;;;;;;5049616;28;20104;-81
2021/03/30 12:27:10;;;;;;;;;;;20.20;40.90;;;;;;5050618;28;20055;-82
2021/03/30 12:29:38;;;;;;;16.80;8.77;;;20.00;40.60;;;;;;5049588;28;19956;-81
2021/03/30 12:32:04;;;;;;;17.13;8.40;;;20.00;39.60;;;;;;5050886;28;20047;-85
2021/03/30 12:34:30;;;;;;;17.00;8.40;;;20.00;40.60;;;;;;5051293;28;20045;-83
2021/03/30 12:36:56;;;;;;;15.07;7.60;;;20.20;40.30;;;;;;5051558;28;20045;-82
2021/03/30 12:39:22;;;;;;;;;;;20.20;40.40;;;;;;5050842;28;20036;-83
2021/03/30 12:41:48;;;;;;;19.38;7.65;;;20.20;40.50;;;;;;5045086;28;19927;-82
2021/03/30 12:44:18;;;;;;;14.82;6.70;;;20.20;38.50;;;;;;5040015;28;20562;-82
2021/03/30 12:46:44;;;;;;;16.00;7.55;;;20.20;37.20;;;;;;5047765;28;20045;-83
2021/03/30 12:49:11;;;;;;;18.17;7.78;;;20.30;39.60;;;;;;5044507;28;20048;-83
2021/03/30 12:51:37;;;;;;;19.85;8.30;;;20.40;41.70;;;;;;5052326;28;20555;-84
2021/03/30 12:54:03;;;;;;;;;;;20.30;37.60;;;;;;5051144;28;20041;-82
2021/03/30 12:56:28;;;;;;;18.48;8.30;;;20.30;38.00;;;;;;5034796;28;19924;-83
2021/03/30 12:58:54;;;;;;;;;;;20.20;37.60;;;;;;5031822;28;20044;-82
2021/03/30 13:01:20;;;;;;;16.25;7.38;;;20.20;37.90;;;;;;5035538;28;19925;-82
2021/03/30 13:03:46;;;;;;;;;;;20.20;38.20;;;;;;5045315;28;20397;-82
2021/03/30 13:06:12;;;;;;;13.57;6.72;;;20.20;37.90;;;;;;5049792;28;19923;-83
2021/03/30 13:08:38;;;;;;;15.55;6.90;;;20.20;38.10;;;;;;5049493;28;20040;-83
2021/03/30 13:11:04;;;;;;;;;;;20.20;38.40;;;;;;5049012;28;20105;-83
2021/03/30 13:13:30;;;;;;;23.20;7.33;;;20.10;36.10;;;;;;5045201;28;19923;-85
2021/03/30 13:15:57;;;;;;;19.27;7.47;;;20.10;36.30;;;;;;5041916;28;20044;-83
2021/03/30 13:18:24;;;;;;;14.10;6.38;;;20.00;35.90;;;;;;5048647;28;20041;-83
2021/03/30 13:20:50;;;;;;;20.42;7.18;;;20.10;38.40;;;;;;5048868;28;20055;-84